createdAt,value
2019-03-02T00:02:20.626Z,90.93
2019-03-02T00:04:55.195Z,91.40
2019-03-02T00:07:47.683Z,91.43
2019-03-02T00:10:23.939Z,91.67
2019-03-02T00:13:07.424Z,91.41
2019-03-02T00:15:49.263Z,92.18
2019-03-02T00:18:39.094Z,92.93
2019-03-02T00:21:47.829Z,94.89
2019-03-02T00:24:37.673Z,96.40
2019-03-02T00:27:27.509Z,97.18
2019-03-02T00:30:17.823Z,95.77
2019-03-02T00:33:00.238Z,94.63
2019-03-02T00:35:50.024Z,94.60
2019-03-02T00:38:40.632Z,95.66
2019-03-02T00:41:22.531Z,96.59
2019-03-02T00:44:12.319Z,95.40
2019-03-02T00:46:43.151Z,93.29
2019-03-02T00:49:32.931Z,92.23
2019-03-02T00:52:23.397Z,92.44
2019-03-02T00:55:14.208Z,91.47
2019-03-02T00:58:04.013Z,90.75
2019-03-02T01:00:54.974Z,90.09
2019-03-02T01:03:36.235Z,90.03
2019-03-02T01:06:26.080Z,90.07
2019-03-02T01:09:15.901Z,90.44
2019-03-02T01:12:08.753Z,90.52
2019-03-02T01:14:48.721Z,91.21
2019-03-02T01:17:38.563Z,90.54
2019-03-02T01:20:29.753Z,91.08
2019-03-02T01:23:11.481Z,90.77
2019-03-02T01:26:01.303Z,91.31
2019-03-02T01:28:51.088Z,90.26
2019-03-02T01:31:41.735Z,90.23
2019-03-02T01:34:32.334Z,89.87
2019-03-02T01:37:22.122Z,89.80
2019-03-02T01:40:13.738Z,89.63
2019-03-02T01:43:04.941Z,89.09
2019-03-02T01:45:55.015Z,89.22
2019-03-02T01:48:44.810Z,90.04
2019-03-02T01:51:34.586Z,90.02
2019-03-02T01:54:24.392Z,90.53
2019-03-02T01:57:17.266Z,90.01
2019-03-02T01:59:56.972Z,89.51
2019-03-02T02:02:46.850Z,89.62
2019-03-02T02:05:36.854Z,89.39
2019-03-02T02:11:10.517Z,89.13
2019-03-02T02:14:00.313Z,88.89
2019-03-02T02:16:50.098Z,88.62
2019-03-02T02:19:39.978Z,89.26
2019-03-02T02:22:29.784Z,90.14
2019-03-02T02:28:22.159Z,90.63
2019-03-02T02:31:11.920Z,91.35
2019-03-02T02:34:01.793Z,92.50
2019-03-02T02:36:32.287Z,92.72
2019-03-02T02:39:22.084Z,93.11
2019-03-02T02:42:11.868Z,93.18
2019-03-02T02:45:01.653Z,93.87
2019-03-02T02:47:53.950Z,93.87
2019-03-02T02:50:31.087Z,94.01
2019-03-02T02:53:12.414Z,94.79
2019-03-02T02:56:02.224Z,94.69
2019-03-02T02:58:56.295Z,95.17
2019-03-02T03:01:35.057Z,94.73
2019-03-02T03:04:24.792Z,94.44
2019-03-02T03:07:14.580Z,94.88
2019-03-02T03:12:56.950Z,96.47
2019-03-02T03:15:39.102Z,96.95
2019-03-02T03:18:28.893Z,97.15
2019-03-02T03:21:27.109Z,96.83
2019-03-02T03:24:03.839Z,96.99
2019-03-02T03:26:45.609Z,97.12
2019-03-02T03:29:35.402Z,97.07
2019-03-02T03:32:25.179Z,97.26
2019-03-02T03:35:17.138Z,97.55
2019-03-02T03:38:06.438Z,97.44
2019-03-02T03:43:20.556Z,98.00
2019-03-02T03:46:10.346Z,98.42
2019-03-02T03:49:00.139Z,98.35
2019-03-02T03:51:49.945Z,98.18
2019-03-02T03:54:40.930Z,98.42
2019-03-02T03:57:23.111Z,98.61
2019-03-02T04:00:14.321Z,96.49
2019-03-02T04:02:45.429Z,94.06
2019-03-02T04:05:35.196Z,92.25
2019-03-02T04:08:05.581Z,91.86
2019-03-02T04:10:55.373Z,91.52
2019-03-02T04:13:46.563Z,91.07
2019-03-02T04:16:23.178Z,90.00
2019-03-02T04:18:58.437Z,87.44
2019-03-02T04:21:41.362Z,86.29
2019-03-02T04:24:34.936Z,85.87
2019-03-02T04:27:30.153Z,86.05
2019-03-02T04:29:59.251Z,86.00
2019-03-02T04:32:49.419Z,85.06
2019-03-02T04:35:19.825Z,85.06
2019-03-02T04:38:09.632Z,84.55
2019-03-02T04:41:00.743Z,84.88
2019-03-02T04:43:44.828Z,84.47
2019-03-02T04:46:34.645Z,84.47
2019-03-02T04:49:24.468Z,84.74
2019-03-02T04:52:14.640Z,84.37
2019-03-02T04:54:59.852Z,84.20
2019-03-02T04:57:49.634Z,83.72
2019-03-02T05:00:39.416Z,84.07
2019-03-02T05:03:09.798Z,83.15
2019-03-02T05:05:59.594Z,83.28
2019-03-02T05:08:49.349Z,83.49
2019-03-02T05:11:26.074Z,82.96
2019-03-02T05:14:15.882Z,82.65
2019-03-02T05:16:46.281Z,82.33
2019-03-02T05:19:36.061Z,82.77
2019-03-02T05:22:25.839Z,82.92
2019-03-02T05:25:18.881Z,83.35
2019-03-02T05:27:59.042Z,83.35
2019-03-02T05:30:49.208Z,83.71
2019-03-02T05:33:39.009Z,83.12
2019-03-02T05:36:28.835Z,84.11
2019-03-02T05:39:18.855Z,84.26
2019-03-02T05:42:10.395Z,84.05
2019-03-02T05:44:46.207Z,84.94
2019-03-02T05:50:22.039Z,85.60
2019-03-02T05:53:11.788Z,86.34
2019-03-02T05:55:42.152Z,86.62
2019-03-02T05:58:31.942Z,86.63
2019-03-02T06:01:21.766Z,86.43
2019-03-02T06:03:52.129Z,86.17
2019-03-02T06:06:22.499Z,85.67
2019-03-02T06:09:14.628Z,84.64
2019-03-02T06:12:15.503Z,85.65
2019-03-02T06:14:57.964Z,85.65
2019-03-02T06:17:47.871Z,85.58
2019-03-02T06:20:37.681Z,85.11
2019-03-02T06:23:30.040Z,85.51
2019-03-02T06:26:10.366Z,85.44
2019-03-02T06:29:00.249Z,85.93
2019-03-02T06:31:50.624Z,85.68
2019-03-02T06:34:32.429Z,82.80
2019-03-02T06:37:22.209Z,82.50
2019-03-02T06:39:52.685Z,82.70
2019-03-02T06:42:45.663Z,82.67
2019-03-02T06:45:27.810Z,81.58
2019-03-02T06:47:58.163Z,80.35
2019-03-02T06:50:47.952Z,80.63
2019-03-02T06:53:37.995Z,81.24
2019-03-02T06:56:20.399Z,82.12
2019-03-02T06:59:10.187Z,82.31
2019-03-02T07:01:40.570Z,81.67
2019-03-02T07:04:30.340Z,80.25
2019-03-02T07:07:21.812Z,80.21
2019-03-02T07:10:33.062Z,79.50
2019-03-02T07:13:05.857Z,77.97
2019-03-02T07:15:55.616Z,76.90
2019-03-02T07:19:04.480Z,76.96
2019-03-02T07:21:54.267Z,76.62
2019-03-02T07:24:44.074Z,77.26
2019-03-02T07:27:33.940Z,76.88
2019-03-02T07:30:23.776Z,76.31
2019-03-02T07:33:13.568Z,76.38
2019-03-02T07:36:03.392Z,75.89
2019-03-02T07:38:56.607Z,74.21
2019-03-02T07:41:30.897Z,74.22
2019-03-02T07:44:22.239Z,73.26
2019-03-02T07:47:05.343Z,73.97
2019-03-02T07:49:55.116Z,73.27
2019-03-02T07:52:25.521Z,74.33
2019-03-02T07:55:19.130Z,73.69
2019-03-02T07:57:59.731Z,73.56
2019-03-02T08:00:49.536Z,72.76
2019-03-02T08:03:39.348Z,72.76
2019-03-02T08:06:29.145Z,71.65
2019-03-02T08:09:22.058Z,71.79
2019-03-02T08:12:02.042Z,70.63
2019-03-02T08:14:51.845Z,71.48
2019-03-02T08:17:41.613Z,71.45
2019-03-02T08:20:31.491Z,71.69
2019-03-02T08:23:01.819Z,70.19
2019-03-02T08:25:51.652Z,69.25
2019-03-02T08:28:42.116Z,69.92
2019-03-02T08:31:24.680Z,68.98
2019-03-02T08:34:14.544Z,70.01
2019-03-02T08:37:05.248Z,69.25
2019-03-02T08:39:55.053Z,69.81
2019-03-02T08:42:44.854Z,70.25
2019-03-02T08:45:34.659Z,70.14
2019-03-02T08:48:24.468Z,70.54
2019-03-02T08:50:54.890Z,71.09
2019-03-02T08:53:44.665Z,70.12
2019-03-02T08:56:34.427Z,69.61
2019-03-02T08:59:04.906Z,69.70
2019-03-02T09:01:55.776Z,70.49
2019-03-02T09:04:47.202Z,70.55
2019-03-02T09:07:23.935Z,70.34
2019-03-02T09:10:14.521Z,70.01
2019-03-02T09:12:58.754Z,69.00
2019-03-02T09:15:39.456Z,70.41
2019-03-02T09:18:41.731Z,68.70
2019-03-02T09:21:20.725Z,68.69
2019-03-02T09:24:12.971Z,69.53
2019-03-02T09:27:02.054Z,69.72
2019-03-02T09:29:51.861Z,69.24
2019-03-02T09:32:41.627Z,68.56
2019-03-02T09:35:31.491Z,69.73
2019-03-02T09:38:22.405Z,69.31
2019-03-02T09:41:06.654Z,69.52
2019-03-02T09:43:37.070Z,69.85
2019-03-02T09:46:28.283Z,68.88
2019-03-02T09:49:04.491Z,69.33
2019-03-02T09:51:54.305Z,69.51
2019-03-02T09:54:44.102Z,69.90
2019-03-02T09:57:33.839Z,71.23
2019-03-02T10:00:25.574Z,70.04
2019-03-02T10:03:15.487Z,71.13
2019-03-02T10:06:05.360Z,70.09
2019-03-02T10:08:55.160Z,71.56
2019-03-02T10:11:44.960Z,70.69
2019-03-02T10:14:35.190Z,72.18
2019-03-02T10:17:26.254Z,73.59
2019-03-02T10:20:16.112Z,74.71
2019-03-02T10:23:06.954Z,75.28
2019-03-02T10:25:49.286Z,76.14
2019-03-02T10:28:39.149Z,75.73
2019-03-02T10:31:28.977Z,76.02
2019-03-02T10:34:18.788Z,77.21
2019-03-02T10:36:49.290Z,77.30
2019-03-02T10:39:39.079Z,78.21
2019-03-02T10:42:31.890Z,78.73
2019-03-02T10:45:20.477Z,78.42
2019-03-02T10:48:10.809Z,78.74
2019-03-02T10:51:20.800Z,79.95
2019-03-02T10:54:10.667Z,79.95
2019-03-02T10:57:01.015Z,80.00
2019-03-02T10:59:43.464Z,81.06
2019-03-02T11:02:33.361Z,79.95
2019-03-02T11:05:42.164Z,82.03
2019-03-02T11:08:50.919Z,82.45
2019-03-02T11:11:52.775Z,83.24
2019-03-02T11:15:04.130Z,83.08
2019-03-02T11:17:58.807Z,84.27
2019-03-02T11:20:58.934Z,84.83
2019-03-02T11:24:00.210Z,85.39
2019-03-02T11:27:09.712Z,84.70
2019-03-02T11:30:06.016Z,83.95
2019-03-02T11:33:14.698Z,84.26
2019-03-02T11:36:23.839Z,84.78
2019-03-02T11:39:26.401Z,84.21
2019-03-02T11:42:35.085Z,82.39
2019-03-02T11:45:26.246Z,82.28
2019-03-02T11:48:23.979Z,83.26
2019-03-02T11:51:18.522Z,82.70
2019-03-02T11:54:17.135Z,83.07
2019-03-02T11:57:25.843Z,82.28
2019-03-02T12:00:37.618Z,82.16
2019-03-02T12:03:31.455Z,82.49
2019-03-02T12:06:41.025Z,79.89
2019-03-02T12:09:33.973Z,79.29
2019-03-02T12:12:42.648Z,80.11
2019-03-02T12:15:51.417Z,81.24
2019-03-02T12:19:00.130Z,82.42
2019-03-02T12:22:00.912Z,82.99
2019-03-02T12:25:09.602Z,80.08
2019-03-02T12:28:18.712Z,81.34
2019-03-02T12:31:28.014Z,81.29
2019-03-02T12:34:14.639Z,81.66
2019-03-02T12:37:20.584Z,82.96
2019-03-02T12:40:22.137Z,84.13
2019-03-02T12:43:30.842Z,85.30
2019-03-02T12:46:39.587Z,86.34
2019-03-02T12:49:48.306Z,86.98
2019-03-02T12:52:48.105Z,87.54
2019-03-02T12:55:43.706Z,87.59
2019-03-02T12:58:55.399Z,87.78
2019-03-02T13:01:49.614Z,87.82
2019-03-02T13:04:51.445Z,87.54
2019-03-02T13:07:47.078Z,87.44
2019-03-02T13:10:41.800Z,87.36
2019-03-02T13:13:52.900Z,86.34
2019-03-02T13:16:55.936Z,85.88
2019-03-02T13:19:53.602Z,85.63
2019-03-02T13:22:43.013Z,85.98
2019-03-02T13:25:51.665Z,86.29
2019-03-02T13:29:00.374Z,86.53
2019-03-02T13:32:09.036Z,86.65
2019-03-02T13:35:19.962Z,86.65
2019-03-02T13:38:14.544Z,86.74
2019-03-02T13:41:30.010Z,86.62
2019-03-02T13:44:27.291Z,86.57
2019-03-02T13:47:35.956Z,85.91
2019-03-02T13:50:47.706Z,85.70
2019-03-02T13:53:41.188Z,85.89
2019-03-02T13:56:49.867Z,85.43
2019-03-02T13:59:39.203Z,85.53
2019-03-02T14:02:47.847Z,86.25
2019-03-02T14:05:38.409Z,86.59
2019-03-02T14:08:33.776Z,86.71
2019-03-02T14:11:42.468Z,87.27
2019-03-02T14:14:51.161Z,87.61
2019-03-02T14:17:59.854Z,88.10
2019-03-02T14:21:08.575Z,89.31
2019-03-02T14:24:08.140Z,89.76
2019-03-02T14:27:06.189Z,89.35
2019-03-02T14:30:14.886Z,89.82
2019-03-02T14:33:25.625Z,89.44
2019-03-02T14:36:20.466Z,88.96
2019-03-02T14:39:29.249Z,89.13
2019-03-02T14:42:39.954Z,89.67
2019-03-02T14:45:34.975Z,90.16
2019-03-02T14:48:45.984Z,90.44
2019-03-02T14:51:40.423Z,90.93
2019-03-02T14:54:49.091Z,90.99
2019-03-02T14:58:00.132Z,91.08
2019-03-02T15:00:54.245Z,91.64
2019-03-02T15:04:06.121Z,91.83
2019-03-02T15:06:59.668Z,91.70
2019-03-02T15:10:08.341Z,90.96
2019-03-02T15:13:17.008Z,90.79
2019-03-02T15:16:25.688Z,90.80
2019-03-02T15:19:34.834Z,91.31
2019-03-02T15:22:30.062Z,91.76
2019-03-02T15:25:38.785Z,92.19
2019-03-02T15:28:47.479Z,92.25
2019-03-02T15:31:56.171Z,92.36
2019-03-02T15:35:04.876Z,92.60
2019-03-02T15:38:13.600Z,92.63
2019-03-02T15:41:22.266Z,92.54
2019-03-02T15:44:30.981Z,92.58
2019-03-02T15:47:39.681Z,91.99
2019-03-02T15:50:51.395Z,92.25
2019-03-02T15:53:52.910Z,92.28
2019-03-02T15:56:47.617Z,92.51
2019-03-02T15:59:56.476Z,92.46
2019-03-02T16:03:05.195Z,92.56
2019-03-02T16:06:13.901Z,92.67
2019-03-02T16:09:25.174Z,93.21
2019-03-02T16:12:19.846Z,93.83
2019-03-02T16:15:28.696Z,94.14
2019-03-02T16:18:38.458Z,94.42
2019-03-02T16:21:34.855Z,94.68
2019-03-02T16:24:43.629Z,94.69
2019-03-02T16:27:46.956Z,94.98
2019-03-02T16:30:55.708Z,95.19
2019-03-02T16:33:44.975Z,95.25
2019-03-02T16:36:53.719Z,95.31
2019-03-02T16:40:02.401Z,95.39
2019-03-02T16:43:11.074Z,95.42
2019-03-02T16:49:12.894Z,95.95
2019-03-02T16:52:21.669Z,96.19
2019-03-02T16:58:33.866Z,96.84
2019-03-02T17:01:42.604Z,97.02
2019-03-02T17:04:55.020Z,96.88
2019-03-02T17:07:47.625Z,96.56
2019-03-02T17:10:59.637Z,96.43
2019-03-02T17:13:59.141Z,96.64
2019-03-02T17:17:11.632Z,96.46
2019-03-02T17:19:53.100Z,96.40
2019-03-02T17:23:05.337Z,96.44
2019-03-02T17:25:48.206Z,96.38
2019-03-02T17:28:56.921Z,95.76
2019-03-02T17:32:05.649Z,95.33
2019-03-02T17:35:21.085Z,95.65
2019-03-02T17:38:12.152Z,96.14
2019-03-02T17:41:08.151Z,96.27
2019-03-02T17:43:55.028Z,96.56
2019-03-02T17:47:06.123Z,96.28
2019-03-02T17:50:08.119Z,96.38
2019-03-02T17:52:54.655Z,96.50
2019-03-02T17:56:04.751Z,96.34
2019-03-02T17:59:00.228Z,96.00
2019-03-02T18:02:09.745Z,95.98
2019-03-02T18:05:18.385Z,96.19
2019-03-02T18:08:27.327Z,96.43
2019-03-02T18:11:36.014Z,96.76
2019-03-02T18:14:44.770Z,96.99
2019-03-02T18:17:55.521Z,97.20
2019-03-02T18:20:32.945Z,97.52
2019-03-02T18:23:23.454Z,97.68
2019-03-02T18:26:06.504Z,97.65
2019-03-02T18:28:56.314Z,97.72
2019-03-02T18:31:46.162Z,97.71
2019-03-02T18:34:35.993Z,97.75
2019-03-02T18:37:26.393Z,97.76
2019-03-02T18:40:10.606Z,97.70
2019-03-02T18:43:04.072Z,97.48
2019-03-02T18:45:51.983Z,97.14
2019-03-02T18:49:00.686Z,97.07
2019-03-02T18:52:09.805Z,96.84
2019-03-02T18:54:59.619Z,96.82
2019-03-02T18:57:50.699Z,96.79
2019-03-02T19:00:54.132Z,96.87
2019-03-02T19:03:30.113Z,97.00
2019-03-02T19:06:23.126Z,97.00
2019-03-02T19:12:37.124Z,96.84
2019-03-02T19:15:27.231Z,97.05
2019-03-02T19:18:17.108Z,96.99
2019-03-02T19:21:06.933Z,96.92
2019-03-02T19:23:56.792Z,96.72
2019-03-02T19:26:47.088Z,96.61
2019-03-02T19:29:36.950Z,96.42
2019-03-02T19:32:26.779Z,96.27
2019-03-02T19:35:16.627Z,96.22
2019-03-02T19:38:06.705Z,96.10
2019-03-02T19:40:56.545Z,96.06
2019-03-02T19:43:46.391Z,96.07
2019-03-02T19:46:36.259Z,96.21
2019-03-02T19:49:26.090Z,96.32
2019-03-02T19:52:15.979Z,96.21
2019-03-02T19:58:10.944Z,96.39
2019-03-02T20:01:00.801Z,96.35
2019-03-02T20:03:50.796Z,96.21
2019-03-02T20:06:40.594Z,96.21
2019-03-02T20:09:11.118Z,96.37
2019-03-02T20:12:00.919Z,96.47
2019-03-02T20:14:50.795Z,96.70
2019-03-02T20:17:22.908Z,96.71
2019-03-02T20:20:13.866Z,96.82
2019-03-02T20:23:03.692Z,96.84
2019-03-02T20:25:34.151Z,96.88
2019-03-02T20:28:24.011Z,96.97
2019-03-02T20:31:13.896Z,97.01
2019-03-02T20:34:03.710Z,97.10
2019-03-02T20:36:54.415Z,97.18
2019-03-02T20:39:44.333Z,97.19
2019-03-02T20:42:34.151Z,97.40
2019-03-02T20:45:23.984Z,97.50
2019-03-02T20:48:14.088Z,97.52
2019-03-02T20:51:03.959Z,97.41
2019-03-02T20:53:53.791Z,97.39
2019-03-02T20:56:43.629Z,97.48
2019-03-02T20:59:33.446Z,97.51
2019-03-02T21:02:23.274Z,97.53
2019-03-02T21:08:17.350Z,97.49
2019-03-02T21:11:07.096Z,97.50
2019-03-02T21:13:37.518Z,97.49
2019-03-02T21:16:27.333Z,97.48
2019-03-02T21:19:17.186Z,97.32
2019-03-02T21:22:07.023Z,96.84
2019-03-02T21:24:56.956Z,96.68
2019-03-02T21:27:27.356Z,96.66
2019-03-02T21:30:17.425Z,96.72
2019-03-02T21:33:07.240Z,96.74
2019-03-02T21:35:57.985Z,96.77
2019-03-02T21:38:47.771Z,96.64
2019-03-02T21:41:37.609Z,96.60
2019-03-02T21:44:27.412Z,96.60
2019-03-02T21:50:23.547Z,96.60
2019-03-02T21:53:13.421Z,96.76
2019-03-02T21:56:03.377Z,97.00
2019-03-02T21:58:53.180Z,97.15
2019-03-02T22:01:42.996Z,97.20
2019-03-02T22:04:32.791Z,97.20
2019-03-02T22:07:22.618Z,97.30
2019-03-02T22:10:15.499Z,97.44
2019-03-02T22:13:05.343Z,97.67
2019-03-02T22:15:35.806Z,97.92
2019-03-02T22:18:25.634Z,97.91
2019-03-02T22:21:15.716Z,97.71
2019-03-02T22:24:05.528Z,97.68
2019-03-02T22:26:55.730Z,97.70
2019-03-02T22:29:45.559Z,97.60
2019-03-02T22:32:35.363Z,97.25
2019-03-02T22:35:44.238Z,96.95
2019-03-02T22:38:14.667Z,96.67
2019-03-02T22:41:04.491Z,96.51
2019-03-02T22:43:54.353Z,96.44
2019-03-02T22:46:24.842Z,96.34
2019-03-02T22:49:14.649Z,96.34
2019-03-02T22:52:04.464Z,96.28
2019-03-02T22:54:54.279Z,96.11
2019-03-02T22:57:44.103Z,96.21
2019-03-02T23:01:12.001Z,96.34
2019-03-02T23:04:01.804Z,96.50
2019-03-02T23:06:51.573Z,96.69
2019-03-02T23:09:41.405Z,96.90
2019-03-02T23:12:31.181Z,97.12
2019-03-02T23:15:20.982Z,97.25
2019-03-02T23:18:10.767Z,97.38
2019-03-02T23:21:00.576Z,97.62
2019-03-02T23:23:50.341Z,97.78
2019-03-02T23:26:40.148Z,97.96
2019-03-02T23:29:29.920Z,98.10
2019-03-02T23:32:19.725Z,98.16
2019-03-02T23:35:09.557Z,98.29
2019-03-02T23:37:59.374Z,98.50
2019-03-02T23:40:29.784Z,98.78
2019-03-02T23:43:00.216Z,99.00
2019-03-02T23:45:50.031Z,99.17
2019-03-02T23:48:39.857Z,99.23
2019-03-02T23:51:29.924Z,99.24
2019-03-02T23:54:19.763Z,99.31
2019-03-02T23:57:09.613Z,99.40
2019-03-02T23:59:59.426Z,99.50
